Time;durP1;ratioP1;P1;durP2;ratioP2;P2;SDS_P1;SDS_P2;PMS_P1;PMS_P2;Temp;Humidity;BMP_temperature;BMP_pressure;BME280_temperature;BME280_humidity;BME280_pressure;Samples;Min_cycle;Max_cycle;Signal;HPM_P1;HPM_P2
2024/03/17 00:00:45;;;;;;;;;19.00;15.75;;;;;;;;5071565;28;9468;-83
2024/03/17 00:03:13;;;;;;;;;22.50;22.50;;;;;;;;5073681;28;9602;-82
2024/03/17 00:05:39;;;;;;;;;13.25;13.25;;;;;;;;5074265;28;9766;-84
2024/03/17 00:08:08;;;;;;;;;20.00;20.00;;;;;;;;5092926;28;9463;-83
2024/03/17 00:10:34;;;;;;;;;19.00;16.75;;;;;;;;5089556;28;9467;-79
2024/03/17 00:13:02;;;;;;;;;14.50;14.50;;;;;;;;5087515;28;9631;-80
2024/03/17 00:15:28;;;;;;;;;15.75;15.50;;;;;;;;5067551;28;9641;-82
2024/03/17 00:17:55;;;;;;;;;15.50;15.50;;;;;;;;5074067;28;9530;-81
2024/03/17 00:20:22;;;;;;;;;21.75;20.25;;;;;;;;5069149;28;9585;-84
2024/03/17 00:22:49;;;;;;;;;22.00;19.50;;;;;;;;5082213;28;9481;-81
2024/03/17 00:25:17;;;;;;;;;17.75;16.50;;;;;;;;5078992;28;9562;-84
2024/03/17 00:27:44;;;;;;;;;12.75;12.75;;;;;;;;5076093;28;9631;-82
2024/03/17 00:30:12;;;;;;;;;17.50;15.75;;;;;;;;5076639;28;9442;-84
2024/03/17 00:32:40;;;;;;;;;17.25;17.25;;;;;;;;5076938;28;9681;-82
2024/03/17 00:35:07;;;;;;;;;21.25;17.50;;;;;;;;5074729;28;9625;-82
2024/03/17 00:37:34;;;;;;;;;13.00;13.00;;;;;;;;5068950;28;9689;-83
2024/03/17 00:40:01;;;;;;;;;22.00;19.50;;;;;;;;5077605;28;9872;-81
2024/03/17 00:42:30;;;;;;;;;16.25;16.25;;;;;;;;5074323;28;9949;-83
2024/03/17 00:44:56;;;;;;;;;16.75;16.75;;;;;;;;5072266;28;9709;-81
2024/03/17 00:47:24;;;;;;;;;19.25;19.25;;;;;;;;5073299;28;9769;-83
2024/03/17 00:49:50;;;;;;;;;23.00;23.00;;;;;;;;5073792;28;9828;-85
2024/03/17 00:52:20;;;;;;;;;18.25;18.25;;;;;;;;5072907;28;10165;-83
2024/03/17 00:54:47;;;;;;;;;15.00;15.00;;;;;;;;5070815;28;10454;-84
2024/03/17 00:57:15;;;;;;;;;19.00;19.00;;;;;;;;5071650;28;10309;-83
2024/03/17 00:59:44;;;;;;;;;20.75;20.75;;;;;;;;5071199;28;9771;-84
2024/03/17 01:02:16;;;;;;;;;18.00;15.00;;;;;;;;5070548;28;9724;-86
2024/03/17 01:04:43;;;;;;;;;14.25;13.25;;;;;;;;5070738;28;9591;-84
2024/03/17 01:07:10;;;;;;;;;19.75;14.00;;;;;;;;5071732;28;9598;-84
2024/03/17 01:09:36;;;;;;;;;14.75;14.00;;;;;;;;5073719;28;10364;-85
2024/03/17 01:12:05;;;;;;;;;13.00;13.00;;;;;;;;5075020;28;9539;-84
2024/03/17 01:14:33;;;;;;;;;14.00;12.25;;;;;;;;5074961;28;9397;-85
2024/03/17 01:17:04;;;;;;;;;15.50;14.00;;;;;;;;5073200;28;9487;-82
2024/03/17 01:19:31;;;;;;;;;17.25;13.00;;;;;;;;5071511;28;10243;-84
2024/03/17 01:22:00;;;;;;;;;15.67;12.67;;;;;;;;5068013;28;10138;-84
2024/03/17 01:24:31;;;;;;;;;13.67;13.67;;;;;;;;5067129;28;9499;-80
2024/03/17 01:26:58;;;;;;;;;11.00;11.00;;;;;;;;5071160;28;9439;-84
2024/03/17 01:29:26;;;;;;;;;12.00;12.00;;;;;;;;5071081;28;10092;-83
2024/03/17 01:31:54;;;;;;;;;12.33;12.00;;;;;;;;5070959;28;9321;-81
2024/03/17 01:34:23;;;;;;;;;13.33;13.33;;;;;;;;5071822;28;9492;-85
2024/03/17 01:36:49;;;;;;;;;8.33;8.33;;;;;;;;5072871;28;9553;-84
2024/03/17 01:39:17;;;;;;;;;10.33;10.00;;;;;;;;5072209;28;9270;-82
2024/03/17 01:41:43;;;;;;;;;15.00;13.67;;;;;;;;5070369;28;9267;-85
2024/03/17 01:44:23;;;;;;;;;13.33;10.00;;;;;;;;5069365;28;9471;-84
2024/03/17 01:46:50;;;;;;;;;18.25;16.50;;;;;;;;5070348;28;9388;-84
2024/03/17 01:49:18;;;;;;;;;16.75;14.25;;;;;;;;5070052;28;9917;-84
2024/03/17 01:51:47;;;;;;;;;15.25;14.00;;;;;;;;5070281;28;9822;-84
2024/03/17 01:54:15;;;;;;;;;15.50;13.25;;;;;;;;5070253;28;9702;-81
2024/03/17 01:56:41;;;;;;;;;11.25;11.25;;;;;;;;5070606;28;9613;-82
2024/03/17 01:59:10;;;;;;;;;12.00;12.00;;;;;;;;5070017;28;9611;-84
2024/03/17 02:01:36;;;;;;;;;10.25;10.25;;;;;;;;5068879;28;9559;-84
2024/03/17 02:04:04;;;;;;;;;11.00;10.50;;;;;;;;5070061;28;9561;-84
2024/03/17 02:06:30;;;;;;;;;9.33;9.33;;;;;;;;5070182;28;9552;-84
2024/03/17 02:08:59;;;;;;;;;13.33;9.67;;;;;;;;5070476;28;9405;-84
2024/03/17 02:11:27;;;;;;;;;10.75;9.75;;;;;;;;5070121;28;9397;-84
2024/03/17 02:13:55;;;;;;;;;11.00;9.00;;;;;;;;5072587;28;9469;-83
2024/03/17 02:16:22;;;;;;;;;9.00;9.00;;;;;;;;5073911;28;9485;-83
2024/03/17 02:18:49;;;;;;;;;11.50;10.00;;;;;;;;5070838;28;9572;-84
2024/03/17 02:21:16;;;;;;;;;11.50;10.00;;;;;;;;5071799;28;9560;-82
2024/03/17 02:23:45;;;;;;;;;9.00;9.00;;;;;;;;5074130;28;9606;-84
2024/03/17 02:26:11;;;;;;;;;10.33;9.33;;;;;;;;5074370;28;9396;-84
2024/03/17 02:28:42;;;;;;;;;14.75;11.00;;;;;;;;5074254;28;9497;-84
2024/03/17 02:31:10;;;;;;;;;8.75;6.75;;;;;;;;5073960;28;9307;-86
2024/03/17 02:33:38;;;;;;;;;12.25;11.00;;;;;;;;5058769;28;10252;-85
2024/03/17 02:36:07;;;;;;;;;9.50;9.50;;;;;;;;5066799;28;9485;-85
2024/03/17 02:41:21;;;;;;;;;14.25;14.25;;;;;;;;5056865;28;9968;-86
2024/03/17 02:43:51;;;;;;;;;11.00;11.00;;;;;;;;5068926;28;9718;-86
2024/03/17 02:46:19;;;;;;;;;14.25;13.00;;;;;;;;5070440;28;9453;-87
2024/03/17 02:48:47;;;;;;;;;11.00;11.00;;;;;;;;5082023;28;9529;-81
2024/03/17 02:51:16;;;;;;;;;17.00;14.50;;;;;;;;5086706;28;9627;-85
2024/03/17 02:53:44;;;;;;;;;13.00;13.00;;;;;;;;5066560;28;9648;-86
2024/03/17 02:56:12;;;;;;;;;16.75;14.00;;;;;;;;5061679;28;9587;-85
2024/03/17 02:58:41;;;;;;;;;19.25;17.25;;;;;;;;5069964;28;10310;-86
2024/03/17 03:01:09;;;;;;;;;13.00;11.75;;;;;;;;5079764;28;10459;-87
2024/03/17 03:03:37;;;;;;;;;18.50;17.00;;;;;;;;5093219;28;9664;-86
2024/03/17 03:06:08;;;;;;;;;9.00;9.00;;;;;;;;5093746;28;9609;-84
2024/03/17 03:08:36;;;;;;;;;9.00;9.00;;;;;;;;5088806;28;9515;-85
2024/03/17 03:11:05;;;;;;;;;8.00;8.00;;;;;;;;5089778;28;9529;-86
2024/03/17 03:13:33;;;;;;;;;9.00;9.00;;;;;;;;5091063;28;9563;-83
2024/03/17 03:16:02;;;;;;;;;14.00;12.50;;;;;;;;5094196;28;9575;-81
2024/03/17 03:18:31;;;;;;;;;12.25;10.75;;;;;;;;5095136;28;9584;-84
2024/03/17 03:20:59;;;;;;;;;12.00;12.00;;;;;;;;5097412;28;9572;-85
2024/03/17 03:23:27;;;;;;;;;10.75;9.00;;;;;;;;5095114;28;9523;-83
2024/03/17 03:25:59;;;;;;;;;12.00;10.25;;;;;;;;5091748;28;9464;-86
2024/03/17 03:28:28;;;;;;;;;12.00;12.00;;;;;;;;5085023;28;9506;-86
2024/03/17 03:30:55;;;;;;;;;10.25;10.25;;;;;;;;5086825;28;9544;-84
2024/03/17 03:33:24;;;;;;;;;11.25;9.75;;;;;;;;5073276;28;9465;-85
2024/03/17 03:35:51;;;;;;;;;16.00;10.00;;;;;;;;5072620;28;9493;-83
2024/03/17 03:38:19;;;;;;;;;12.25;10.50;;;;;;;;5072910;28;9554;-83
2024/03/17 03:40:47;;;;;;;;;12.25;12.25;;;;;;;;5072699;28;9539;-85
2024/03/17 03:43:15;;;;;;;;;19.00;18.00;;;;;;;;5072093;28;9710;-82
2024/03/17 03:45:42;;;;;;;;;9.75;9.50;;;;;;;;5072411;28;9572;-85
2024/03/17 03:48:10;;;;;;;;;11.00;11.00;;;;;;;;5073194;28;9550;-85
2024/03/17 03:50:40;;;;;;;;;10.67;10.67;;;;;;;;5072456;28;9391;-81
2024/03/17 03:53:07;;;;;;;;;14.25;11.75;;;;;;;;5072604;28;9544;-83
2024/03/17 03:55:35;;;;;;;;;7.00;7.00;;;;;;;;5072660;28;9497;-83
2024/03/17 03:58:03;;;;;;;;;10.50;10.25;;;;;;;;5083041;28;9553;-81
2024/03/17 04:00:31;;;;;;;;;16.50;12.50;;;;;;;;5075108;28;9472;-84
2024/03/17 04:03:01;;;;;;;;;11.00;11.00;;;;;;;;5094236;28;9598;-85
2024/03/17 04:05:29;;;;;;;;;12.00;12.00;;;;;;;;5095890;28;10456;-83
2024/03/17 04:07:58;;;;;;;;;16.75;12.50;;;;;;;;5095376;28;9624;-87
2024/03/17 04:10:25;;;;;;;;;13.50;13.00;;;;;;;;5096786;28;9737;-84
2024/03/17 04:12:53;;;;;;;;;12.50;12.50;;;;;;;;5094698;28;9655;-82
2024/03/17 04:15:21;;;;;;;;;12.75;12.75;;;;;;;;5096379;28;9578;-85
2024/03/17 04:17:48;;;;;;;;;10.25;10.25;;;;;;;;5096675;28;9690;-80
2024/03/17 04:20:16;;;;;;;;;15.25;12.75;;;;;;;;5085173;28;9665;-82
2024/03/17 04:22:43;;;;;;;;;18.50;18.50;;;;;;;;5093966;28;9621;-84
2024/03/17 04:25:12;;;;;;;;;13.50;13.50;;;;;;;;5091567;28;9713;-84
2024/03/17 04:27:40;;;;;;;;;18.75;16.00;;;;;;;;5092140;28;9585;-85
2024/03/17 04:30:08;;;;;;;;;14.00;10.75;;;;;;;;5091553;28;9709;-85
2024/03/17 04:32:36;;;;;;;;;11.75;11.75;;;;;;;;5092068;28;9704;-86
2024/03/17 04:35:03;;;;;;;;;12.25;12.25;;;;;;;;5092336;28;9777;-83
2024/03/17 04:37:30;;;;;;;;;14.00;11.25;;;;;;;;5091111;28;9498;-85
2024/03/17 04:39:58;;;;;;;;;11.50;11.00;;;;;;;;5091636;28;9539;-87
2024/03/17 04:42:26;;;;;;;;;12.75;12.75;;;;;;;;5091287;28;9629;-84
2024/03/17 04:44:54;;;;;;;;;8.50;8.50;;;;;;;;5092225;28;9609;-83
2024/03/17 04:47:21;;;;;;;;;14.50;11.00;;;;;;;;5087467;28;9773;-86
2024/03/17 04:49:48;;;;;;;;;9.50;9.50;;;;;;;;5083946;28;9545;-85
2024/03/17 04:52:16;;;;;;;;;13.50;11.75;;;;;;;;5092427;28;9623;-82
2024/03/17 04:54:43;;;;;;;;;12.50;10.00;;;;;;;;5095676;28;9657;-86
2024/03/17 04:57:11;;;;;;;;;15.25;11.75;;;;;;;;5095073;28;10190;-85
2024/03/17 04:59:38;;;;;;;;;11.75;11.75;;;;;;;;5093319;28;9476;-84
2024/03/17 05:02:06;;;;;;;;;11.50;9.75;;;;;;;;5090650;28;9562;-83
2024/03/17 05:04:33;;;;;;;;;12.25;11.00;;;;;;;;5079024;28;9492;-86
2024/03/17 05:07:00;;;;;;;;;16.50;12.75;;;;;;;;5090924;28;9717;-85
2024/03/17 05:09:28;;;;;;;;;15.00;12.00;;;;;;;;5091998;28;9614;-84
2024/03/17 05:11:55;;;;;;;;;11.50;11.50;;;;;;;;5090717;28;9855;-85
2024/03/17 05:14:22;;;;;;;;;12.00;12.00;;;;;;;;5091780;28;9753;-85
2024/03/17 05:16:52;;;;;;;;;13.75;13.50;;;;;;;;5093906;28;9910;-85
2024/03/17 05:19:19;;;;;;;;;10.75;10.75;;;;;;;;5099988;28;9704;-83
2024/03/17 05:21:47;;;;;;;;;12.75;9.00;;;;;;;;5114520;28;9786;-86
2024/03/17 05:24:14;;;;;;;;;14.00;14.00;;;;;;;;5094476;28;9794;-84
2024/03/17 05:26:42;;;;;;;;;14.50;12.75;;;;;;;;5092758;28;9696;-87
2024/03/17 05:29:09;;;;;;;;;12.25;12.25;;;;;;;;5091209;28;9662;-84
2024/03/17 05:31:38;;;;;;;;;15.25;11.00;;;;;;;;5090937;28;9727;-82
2024/03/17 05:34:09;;;;;;;;;15.25;15.25;;;;;;;;5089752;28;9680;-84
2024/03/17 05:36:36;;;;;;;;;10.75;10.75;;;;;;;;5090525;28;9753;-85
2024/03/17 05:39:03;;;;;;;;;11.50;11.50;;;;;;;;5091159;28;9605;-84
2024/03/17 05:41:31;;;;;;;;;11.50;11.50;;;;;;;;5091077;28;9637;-84
2024/03/17 05:43:58;;;;;;;;;14.50;13.00;;;;;;;;5090323;28;9632;-82
2024/03/17 05:46:26;;;;;;;;;10.50;8.00;;;;;;;;5090206;28;9614;-76
2024/03/17 05:48:54;;;;;;;;;15.75;11.50;;;;;;;;5093051;28;9692;-78
2024/03/17 05:51:25;;;;;;;;;13.75;11.25;;;;;;;;5094332;28;9718;-75
2024/03/17 05:53:55;;;;;;;;;10.00;8.00;;;;;;;;5090704;28;9375;-76
2024/03/17 05:56:23;;;;;;;;;11.50;10.50;;;;;;;;5092182;28;9570;-76
2024/03/17 05:58:51;;;;;;;;;12.25;10.75;;;;;;;;5091632;28;9535;-77
2024/03/17 06:01:19;;;;;;;;;10.25;8.75;;;;;;;;5092089;28;9315;-75
2024/03/17 06:03:46;;;;;;;;;9.67;9.00;;;;;;;;5090977;28;9480;-76
2024/03/17 06:06:13;;;;;;;;;9.00;9.00;;;;;;;;5091188;28;9612;-76
2024/03/17 06:08:42;;;;;;;;;9.25;9.25;;;;;;;;5093155;28;9555;-75
2024/03/17 06:11:09;;;;;;;;;9.75;9.75;;;;;;;;5090938;28;9477;-75
2024/03/17 06:13:37;;;;;;;;;13.00;10.67;;;;;;;;5088338;28;9669;-74
2024/03/17 06:16:05;;;;;;;;;10.50;9.00;;;;;;;;5088020;28;9374;-74
2024/03/17 06:18:34;;;;;;;;;9.75;8.00;;;;;;;;5088600;28;9465;-75
2024/03/17 06:21:05;;;;;;;;;10.00;10.00;;;;;;;;5088177;28;9468;-74
2024/03/17 06:23:32;;;;;;;;;9.00;9.00;;;;;;;;5088770;28;9381;-74
2024/03/17 06:26:05;;;;;;;;;7.25;7.25;;;;;;;;5087883;28;9381;-78
2024/03/17 06:28:32;;;;;;;;;12.75;9.25;;;;;;;;5088306;28;9396;-76
2024/03/17 06:31:03;;;;;;;;;8.00;8.00;;;;;;;;5091432;28;9352;-78
2024/03/17 06:33:31;;;;;;;;;9.50;9.00;;;;;;;;5098376;28;9495;-79
2024/03/17 06:35:59;;;;;;;;;9.75;8.25;;;;;;;;5089846;28;9380;-78
2024/03/17 06:38:26;;;;;;;;;8.33;8.33;;;;;;;;5089153;28;10265;-78
2024/03/17 06:40:53;;;;;;;;;9.00;9.00;;;;;;;;5089394;28;9387;-79
2024/03/17 06:43:22;;;;;;;;;7.00;7.00;;;;;;;;5092087;28;9361;-80
2024/03/17 06:45:56;;;;;;;;;8.33;7.33;;;;;;;;5091267;28;9431;-78
2024/03/17 06:48:24;;;;;;;;;9.25;9.00;;;;;;;;5088539;28;10220;-79
2024/03/17 06:50:52;;;;;;;;;10.50;10.50;;;;;;;;5088775;28;9546;-78
2024/03/17 06:53:23;;;;;;;;;9.50;9.50;;;;;;;;5088140;28;9385;-79
2024/03/17 06:55:54;;;;;;;;;7.00;7.00;;;;;;;;5076480;28;9478;-80
2024/03/17 06:58:24;;;;;;;;;8.67;8.67;;;;;;;;5088289;28;10104;-77
2024/03/17 07:00:59;;;;;;;;;10.00;7.00;;;;;;;;5092373;27;9412;-79
2024/03/17 07:03:26;;;;;;;;;10.00;8.00;;;;;;;;5099057;28;9313;-77
2024/03/17 07:06:01;;;;;;;;;12.75;9.25;;;;;;;;5088118;28;9425;-78
2024/03/17 07:08:29;;;;;;;;;8.50;8.50;;;;;;;;5088069;28;9392;-76
2024/03/17 07:11:02;;;;;;;;;12.00;10.00;;;;;;;;5088023;28;9423;-77
2024/03/17 07:13:34;;;;;;;;;10.00;10.00;;;;;;;;5093433;28;9515;-77
2024/03/17 07:16:02;;;;;;;;;9.00;9.00;;;;;;;;5093521;28;9605;-77
2024/03/17 07:18:32;;;;;;;;;12.00;10.00;;;;;;;;5076410;28;9527;-77
2024/03/17 07:21:00;;;;;;;;;13.00;13.00;;;;;;;;5086896;28;9464;-77
2024/03/17 07:23:27;;;;;;;;;10.75;10.75;;;;;;;;5087639;28;9518;-77
2024/03/17 07:25:55;;;;;;;;;9.00;9.00;;;;;;;;5087286;28;9609;-76
2024/03/17 07:28:23;;;;;;;;;8.00;6.75;;;;;;;;5098820;28;9513;-77
2024/03/17 07:30:53;;;;;;;;;8.00;8.00;;;;;;;;5087058;28;9368;-77
2024/03/17 07:33:21;;;;;;;;;11.50;10.00;;;;;;;;5088262;28;9498;-77
2024/03/17 07:35:49;;;;;;;;;9.50;8.75;;;;;;;;5088206;28;9533;-76
2024/03/17 07:38:17;;;;;;;;;8.50;8.00;;;;;;;;5089465;28;9465;-78
2024/03/17 07:40:44;;;;;;;;;7.33;7.33;;;;;;;;5090860;28;9479;-76
2024/03/17 07:43:11;;;;;;;;;10.75;10.75;;;;;;;;5091708;28;9411;-75
2024/03/17 07:45:42;;;;;;;;;10.00;10.00;;;;;;;;5084534;28;9471;-75
2024/03/17 07:48:12;;;;;;;;;12.75;11.00;;;;;;;;5093421;28;9455;-77
2024/03/17 07:50:41;;;;;;;;;9.33;9.00;;;;;;;;5093999;28;9403;-79
2024/03/17 07:53:12;;;;;;;;;10.00;10.00;;;;;;;;5088596;28;9469;-77
2024/03/17 07:55:41;;;;;;;;;9.00;9.00;;;;;;;;5095658;28;9470;-77
2024/03/17 07:58:09;;;;;;;;;12.00;12.00;;;;;;;;5086203;28;9307;-76
2024/03/17 08:00:38;;;;;;;;;14.50;14.50;;;;;;;;5092494;28;9498;-78
2024/03/17 08:03:07;;;;;;;;;12.67;11.33;;;;;;;;5093820;28;9392;-76
2024/03/17 08:05:35;;;;;;;;;11.75;11.75;;;;;;;;5092688;28;9389;-76
2024/03/17 08:08:02;;;;;;;;;9.67;9.67;;;;;;;;5097362;28;10119;-76
2024/03/17 08:10:39;;;;;;;;;2.67;2.67;;;;;;;;5079867;28;9415;-77
2024/03/17 08:13:23;;;;;;;;;12.67;10.67;;;;;;;;5090842;28;9312;-75
2024/03/17 08:16:03;;;;;;;;;13.00;11.00;;;;;;;;5090643;28;9424;-78
2024/03/17 08:18:30;;;;;;;;;10.67;10.33;;;;;;;;5090048;28;9403;-76
2024/03/17 08:21:00;;;;;;;;;11.00;9.33;;;;;;;;5090946;28;9591;-77
2024/03/17 08:23:27;;;;;;;;;11.33;10.00;;;;;;;;5091172;28;9411;-75
2024/03/17 08:25:55;;;;;;;;;9.00;9.00;;;;;;;;5085686;28;9250;-77
2024/03/17 08:28:26;;;;;;;;;10.00;10.00;;;;;;;;5092102;28;9317;-78
2024/03/17 08:30:54;;;;;;;;;9.00;7.33;;;;;;;;5093474;28;9219;-77
2024/03/17 08:33:22;;;;;;;;;6.67;4.00;;;;;;;;5086181;28;9972;-77
2024/03/17 08:35:59;;;;;;;;;8.33;8.33;;;;;;;;5088976;28;9296;-74
2024/03/17 08:38:27;;;;;;;;;10.33;8.33;;;;;;;;5080954;28;9190;-77
2024/03/17 08:40:55;;;;;;;;;7.67;7.67;;;;;;;;5089103;28;10020;-78
2024/03/17 08:43:24;;;;;;;;;8.00;6.67;;;;;;;;5090333;28;9291;-77
2024/03/17 08:45:59;;;;;;;;;8.67;8.67;;;;;;;;5089687;28;9207;-77
2024/03/17 08:48:26;;;;;;;;;11.00;9.33;;;;;;;;5090010;28;9070;-77
2024/03/17 08:50:54;;;;;;;;;12.67;9.00;;;;;;;;5089911;28;9212;-78
2024/03/17 08:53:23;;;;;;;;;8.33;8.00;;;;;;;;5089981;28;9380;-77
2024/03/17 08:55:50;;;;;;;;;14.33;13.67;;;;;;;;5078031;28;9029;-78
2024/03/17 08:58:19;;;;;;;;;13.33;12.00;;;;;;;;5089943;28;9209;-78
2024/03/17 09:00:46;;;;;;;;;10.33;10.33;;;;;;;;5090419;28;9067;-78
2024/03/17 09:03:14;;;;;;;;;10.00;8.00;;;;;;;;5090492;28;9041;-78
2024/03/17 09:05:43;;;;;;;;;9.00;8.00;;;;;;;;5090488;28;9137;-78
2024/03/17 09:08:17;;;;;;;;;11.67;10.00;;;;;;;;5089108;28;8945;-79
2024/03/17 09:10:46;;;;;;;;;8.00;8.00;;;;;;;;5090088;28;8943;-76
2024/03/17 09:13:15;;;;;;;;;9.67;9.67;;;;;;;;5089818;28;9226;-77
2024/03/17 09:15:51;;;;;;;;;8.33;8.33;;;;;;;;5089953;28;8970;-78
2024/03/17 09:18:18;;;;;;;;;5.25;5.00;;;;;;;;5088791;28;9182;-78
2024/03/17 09:20:45;;;;;;;;;11.33;9.33;;;;;;;;5089724;28;8856;-76
2024/03/17 09:23:14;;;;;;;;;9.25;7.25;;;;;;;;5093335;28;9059;-78
2024/03/17 09:25:41;;;;;;;;;11.33;10.00;;;;;;;;5096511;28;8856;-79
2024/03/17 09:28:11;;;;;;;;;8.00;8.00;;;;;;;;5089696;28;8951;-77
2024/03/17 09:30:38;;;;;;;;;8.00;8.00;;;;;;;;5090317;28;8881;-77
2024/03/17 09:33:05;;;;;;;;;7.50;6.25;;;;;;;;5091667;28;8928;-77
2024/03/17 09:35:33;;;;;;;;;6.25;6.25;;;;;;;;5091512;28;8964;-77
2024/03/17 09:38:00;;;;;;;;;6.00;6.00;;;;;;;;5092671;28;8844;-78
2024/03/17 09:40:28;;;;;;;;;7.67;6.00;;;;;;;;5092793;28;8876;-78
2024/03/17 09:42:56;;;;;;;;;14.33;14.33;;;;;;;;5092414;28;8951;-76
2024/03/17 09:45:26;;;;;;;;;8.33;5.00;;;;;;;;5092896;28;9310;-76
2024/03/17 09:47:56;;;;;;;;;6.00;6.00;;;;;;;;5090065;28;8942;-77
2024/03/17 09:50:26;;;;;;;;;6.75;5.50;;;;;;;;5089035;28;8905;-77
2024/03/17 09:52:55;;;;;;;;;7.33;7.33;;;;;;;;5089461;28;8844;-78
2024/03/17 09:55:22;;;;;;;;;5.67;5.67;;;;;;;;5088880;28;9010;-77
2024/03/17 09:57:51;;;;;;;;;8.75;5.75;;;;;;;;5088823;28;9589;-77
2024/03/17 10:00:18;;;;;;;;;7.67;7.67;;;;;;;;5087627;28;8864;-77
2024/03/17 10:02:48;;;;;;;;;8.00;6.67;;;;;;;;5088570;28;8947;-76
2024/03/17 10:05:22;;;;;;;;;7.00;7.00;;;;;;;;5087931;28;9875;-77
2024/03/17 10:07:50;;;;;;;;;7.67;6.00;;;;;;;;5086930;28;9009;-78
2024/03/17 10:10:20;;;;;;;;;8.25;6.75;;;;;;;;5088362;28;8933;-77
2024/03/17 10:12:51;;;;;;;;;9.25;8.00;;;;;;;;5088762;28;9766;-77
2024/03/17 10:15:20;;;;;;;;;8.00;6.25;;;;;;;;5089476;28;8882;-75
2024/03/17 10:17:48;;;;;;;;;7.50;7.00;;;;;;;;5092413;28;8840;-76
2024/03/17 10:20:20;;;;;;;;;11.00;9.33;;;;;;;;5103206;28;8992;-75
2024/03/17 10:23:04;;;;;;;;;10.25;8.50;;;;;;;;5090054;28;9052;-77
2024/03/17 10:25:33;;;;;;;;;10.50;8.50;;;;;;;;5088491;28;8908;-78
2024/03/17 10:28:01;;;;;;;;;9.25;7.75;;;;;;;;5092425;28;8838;-77
2024/03/17 10:30:30;;;;;;;;;6.25;6.25;;;;;;;;5093639;28;8781;-76
2024/03/17 10:33:00;;;;;;;;;9.00;9.00;;;;;;;;5087819;28;8848;-76
2024/03/17 10:35:32;;;;;;;;;9.50;9.50;;;;;;;;5088362;28;8853;-76
2024/03/17 10:38:00;;;;;;;;;9.00;9.00;;;;;;;;5094343;28;8920;-77
2024/03/17 10:40:29;;;;;;;;;7.00;7.00;;;;;;;;5093017;28;8840;-77
2024/03/17 10:42:58;;;;;;;;;9.50;7.75;;;;;;;;5076107;28;8856;-76
2024/03/17 10:45:27;;;;;;;;;4.75;4.75;;;;;;;;5087921;28;8913;-77
2024/03/17 10:47:54;;;;;;;;;7.25;7.25;;;;;;;;5088111;28;8852;-76
2024/03/17 10:50:24;;;;;;;;;7.50;7.50;;;;;;;;5088156;28;8852;-77
2024/03/17 10:52:52;;;;;;;;;6.00;6.00;;;;;;;;5089926;28;8836;-77
2024/03/17 10:55:24;;;;;;;;;5.50;5.50;;;;;;;;5087566;28;8852;-77
2024/03/17 10:57:52;;;;;;;;;7.75;7.75;;;;;;;;5088234;28;8913;-77
2024/03/17 11:00:22;;;;;;;;;12.00;8.75;;;;;;;;5087305;28;8875;-77
2024/03/17 11:02:51;;;;;;;;;14.25;10.75;;;;;;;;5088096;28;8883;-77
2024/03/17 11:05:22;;;;;;;;;7.00;7.00;;;;;;;;5087872;28;8846;-80
2024/03/17 11:07:51;;;;;;;;;8.00;6.00;;;;;;;;5088099;28;8860;-78
2024/03/17 11:10:21;;;;;;;;;5.50;5.50;;;;;;;;5086517;28;8848;-78
2024/03/17 11:12:50;;;;;;;;;7.00;7.00;;;;;;;;5086013;28;8868;-78
2024/03/17 11:15:40;;;;;;;;;7.00;7.00;;;;;;;;5087880;28;8840;-77
2024/03/17 11:18:36;;;;;;;;;9.00;8.00;;;;;;;;5087938;28;8859;-76
2024/03/17 11:21:14;;;;;;;;;6.25;6.25;;;;;;;;5090810;28;8828;-78
2024/03/17 11:23:42;;;;;;;;;8.50;8.50;;;;;;;;5091991;28;8832;-79
2024/03/17 11:26:10;;;;;;;;;6.50;6.50;;;;;;;;5091422;28;8864;-75
2024/03/17 11:28:52;;;;;;;;;8.00;8.00;;;;;;;;5091499;28;8859;-77
2024/03/17 11:31:41;;;;;;;;;6.25;6.25;;;;;;;;5090782;28;8784;-76
2024/03/17 11:34:28;;;;;;;;;5.00;5.00;;;;;;;;5105379;28;8864;-77
2024/03/17 11:37:05;;;;;;;;;10.00;9.00;;;;;;;;5099454;28;8855;-78
2024/03/17 11:39:49;;;;;;;;;5.50;5.50;;;;;;;;5091192;28;9728;-77
2024/03/17 11:42:20;;;;;;;;;8.00;8.00;;;;;;;;5090853;28;8845;-77
2024/03/17 11:44:57;;;;;;;;;5.00;5.00;;;;;;;;5091177;28;8986;-76
2024/03/17 11:47:33;;;;;;;;;8.25;6.00;;;;;;;;5095337;28;8865;-77
2024/03/17 11:50:02;;;;;;;;;7.25;7.25;;;;;;;;5096782;28;8856;-76
2024/03/17 11:52:32;;;;;;;;;6.50;6.50;;;;;;;;5103392;28;9682;-77
2024/03/17 11:54:58;;;;;;;;;9.50;7.00;;;;;;;;5090935;28;8891;-77
2024/03/17 11:57:32;;;;;;;;;7.50;6.00;;;;;;;;5091138;28;8940;-77
2024/03/17 11:59:58;;;;;;;;;10.50;7.00;;;;;;;;5090443;28;8891;-77
2024/03/17 12:02:29;;;;;;;;;7.50;7.00;;;;;;;;5099061;28;8821;-76
2024/03/17 12:05:00;;;;;;;;;9.00;6.50;;;;;;;;5095924;28;8836;-77
2024/03/17 12:07:30;;;;;;;;;7.25;6.00;;;;;;;;5094990;28;8844;-77
2024/03/17 12:09:59;;;;;;;;;7.25;7.25;;;;;;;;5093479;28;8943;-76
2024/03/17 12:12:34;;;;;;;;;6.25;6.00;;;;;;;;5092548;28;8911;-77
2024/03/17 12:15:02;;;;;;;;;6.75;4.00;;;;;;;;5090066;28;8937;-76
2024/03/17 12:17:29;;;;;;;;;7.00;7.00;;;;;;;;5091037;28;8871;-77
2024/03/17 12:19:56;;;;;;;;;8.75;7.00;;;;;;;;5089442;28;8854;-76
2024/03/17 12:22:24;;;;;;;;;8.75;8.75;;;;;;;;5090564;28;8852;-77
2024/03/17 12:24:53;;;;;;;;;10.00;10.00;;;;;;;;5090657;28;8887;-77
2024/03/17 12:27:21;;;;;;;;;8.25;6.50;;;;;;;;5103416;28;8857;-76
2024/03/17 12:29:50;;;;;;;;;7.00;7.00;;;;;;;;5078835;28;8844;-77
2024/03/17 12:32:20;;;;;;;;;8.00;6.25;;;;;;;;5089428;28;8785;-77
2024/03/17 12:34:50;;;;;;;;;5.00;5.00;;;;;;;;5090730;28;9677;-77
2024/03/17 12:37:19;;;;;;;;;6.25;5.00;;;;;;;;5089982;28;8836;-77
2024/03/17 12:39:48;;;;;;;;;4.00;4.00;;;;;;;;5090774;28;8855;-76
2024/03/17 12:42:16;;;;;;;;;5.00;3.25;;;;;;;;5090097;28;8974;-77
2024/03/17 12:44:50;;;;;;;;;7.50;4.50;;;;;;;;5091809;28;8856;-77
2024/03/17 12:47:17;;;;;;;;;4.00;4.00;;;;;;;;5091994;28;8856;-76
2024/03/17 12:49:48;;;;;;;;;4.50;4.00;;;;;;;;5095226;28;8875;-75
2024/03/17 12:52:19;;;;;;;;;3.00;3.00;;;;;;;;5091280;28;8909;-77
2024/03/17 13:00:31;;;;;;;;;3.00;3.00;;;;;;;;5090694;28;9599;-77
2024/03/17 13:00:33;;;;;;;;;4.25;2.75;;;;;;;;5090355;28;8799;-77
2024/03/17 13:03:01;;;;;;;;;5.75;4.00;;;;;;;;5090544;28;8874;-77
2024/03/17 13:05:28;;;;;;;;;6.50;6.50;;;;;;;;5091534;28;8971;-77
2024/03/17 13:07:57;;;;;;;;;4.50;4.00;;;;;;;;5091824;28;8937;-75
2024/03/17 13:10:25;;;;;;;;;6.00;5.50;;;;;;;;5081051;28;8863;-78
2024/03/17 13:13:04;;;;;;;;;6.00;6.00;;;;;;;;5092723;28;8954;-76
2024/03/17 13:15:35;;;;;;;;;2.00;2.00;;;;;;;;5093750;28;8864;-77
2024/03/17 13:18:03;;;;;;;;;2.75;2.75;;;;;;;;5104606;28;8909;-76
2024/03/17 13:20:31;;;;;;;;;3.00;3.00;;;;;;;;5093489;28;8848;-77
2024/03/17 13:22:59;;;;;;;;;0.00;0.00;;;;;;;;5092786;28;8852;-76
2024/03/17 13:25:33;;;;;;;;;4.00;4.00;;;;;;;;5089636;28;8852;-76
2024/03/17 13:28:00;;;;;;;;;1.75;1.75;;;;;;;;5088667;28;8840;-76
2024/03/17 13:30:28;;;;;;;;;1.25;1.25;;;;;;;;5089255;28;8873;-75
2024/03/17 13:32:58;;;;;;;;;2.00;2.00;;;;;;;;5088574;28;8966;-76
2024/03/17 13:35:27;;;;;;;;;2.00;2.00;;;;;;;;5089523;28;8942;-76
2024/03/17 13:37:55;;;;;;;;;3.00;3.00;;;;;;;;5088850;28;8906;-76
2024/03/17 13:40:24;;;;;;;;;4.75;3.25;;;;;;;;5088911;28;8898;-77
2024/03/17 13:42:56;;;;;;;;;4.25;3.75;;;;;;;;5077129;28;8929;-76
2024/03/17 13:45:26;;;;;;;;;4.50;3.00;;;;;;;;5088683;28;8867;-76
2024/03/17 13:47:58;;;;;;;;;7.25;5.50;;;;;;;;5089537;28;8844;-76
2024/03/17 13:50:25;;;;;;;;;1.25;1.25;;;;;;;;5089271;28;9664;-76
2024/03/17 13:52:53;;;;;;;;;7.50;4.50;;;;;;;;5090391;28;9668;-76
2024/03/17 13:55:21;;;;;;;;;3.00;3.00;;;;;;;;5091525;28;8871;-76
2024/03/17 13:57:52;;;;;;;;;4.00;4.00;;;;;;;;5091501;28;8852;-76
2024/03/17 14:00:21;;;;;;;;;4.00;4.00;;;;;;;;5089880;28;8929;-76
2024/03/17 14:02:49;;;;;;;;;4.50;4.50;;;;;;;;5089001;28;8921;-76
2024/03/17 14:05:19;;;;;;;;;6.00;5.00;;;;;;;;5088527;28;8856;-76
2024/03/17 14:07:47;;;;;;;;;3.25;3.00;;;;;;;;5088850;28;8983;-76
2024/03/17 14:10:17;;;;;;;;;4.50;4.50;;;;;;;;5086838;28;9666;-76
2024/03/17 14:12:44;;;;;;;;;6.75;6.75;;;;;;;;5088224;28;9631;-76
2024/03/17 14:15:15;;;;;;;;;5.50;5.00;;;;;;;;5088571;28;8856;-76
2024/03/17 14:17:46;;;;;;;;;9.25;6.00;;;;;;;;5088583;28;8888;-78
2024/03/17 14:20:17;;;;;;;;;5.00;5.00;;;;;;;;5088282;28;8852;-77
2024/03/17 14:22:48;;;;;;;;;7.00;6.00;;;;;;;;5088490;28;9382;-77
2024/03/17 14:25:17;;;;;;;;;2.50;2.00;;;;;;;;5088375;28;8872;-77
2024/03/17 14:27:45;;;;;;;;;5.50;5.50;;;;;;;;5088027;28;8848;-77
2024/03/17 14:30:16;;;;;;;;;5.50;4.50;;;;;;;;5088477;28;8871;-77
2024/03/17 14:32:44;;;;;;;;;4.00;2.25;;;;;;;;5086905;28;8852;-75
2024/03/17 14:35:14;;;;;;;;;6.50;6.50;;;;;;;;5088708;28;8856;-77
2024/03/17 14:37:42;;;;;;;;;5.75;5.75;;;;;;;;5088108;28;8840;-78
2024/03/17 14:40:20;;;;;;;;;7.00;7.00;;;;;;;;5088155;28;8901;-77
2024/03/17 14:42:53;;;;;;;;;7.75;7.00;;;;;;;;5081761;28;9683;-78
2024/03/17 14:45:21;;;;;;;;;10.00;7.25;;;;;;;;5083392;28;8959;-76
2024/03/17 14:47:48;;;;;;;;;8.75;6.75;;;;;;;;5088600;28;8874;-76
2024/03/17 14:50:16;;;;;;;;;10.50;7.75;;;;;;;;5088356;28;8840;-78
2024/03/17 14:52:43;;;;;;;;;9.25;7.50;;;;;;;;5091090;28;8869;-77
2024/03/17 14:55:13;;;;;;;;;12.00;9.25;;;;;;;;5090805;28;8852;-76
2024/03/17 14:57:41;;;;;;;;;10.00;10.00;;;;;;;;5091858;28;8848;-77
2024/03/17 15:00:15;;;;;;;;;12.33;11.33;;;;;;;;5089965;28;8856;-77